createdAt,value
2019-01-27T00:01:07.291Z,1.00
2019-01-27T00:03:38.422Z,1.00
2019-01-27T00:06:09.660Z,1.00
2019-01-27T00:08:40.921Z,1.00
2019-01-27T00:11:12.049Z,1.00
2019-01-27T00:13:43.190Z,1.10
2019-01-27T00:16:14.286Z,1.10
2019-01-27T00:18:45.354Z,1.20
2019-01-27T00:21:16.402Z,1.20
2019-01-27T00:23:47.473Z,1.30
2019-01-27T00:26:18.523Z,1.30
2019-01-27T00:28:49.610Z,1.30
2019-01-27T00:31:20.671Z,1.30
2019-01-27T00:33:51.780Z,1.20
2019-01-27T00:36:22.860Z,1.30
2019-01-27T00:38:53.968Z,1.20
2019-01-27T00:41:25.031Z,1.20
2019-01-27T00:43:56.086Z,1.20
2019-01-27T00:46:27.226Z,1.20
2019-01-27T00:48:58.304Z,1.20
2019-01-27T00:51:29.464Z,1.20
2019-01-27T00:54:00.526Z,1.30
2019-01-27T00:56:31.592Z,1.40
2019-01-27T00:59:02.762Z,1.30
2019-01-27T01:01:33.810Z,1.30
2019-01-27T01:04:05.391Z,1.30
2019-01-27T01:06:36.694Z,1.30
2019-01-27T01:09:11.556Z,1.30
2019-01-27T01:11:42.679Z,1.20
2019-01-27T01:14:13.776Z,1.20
2019-01-27T01:16:44.829Z,1.20
2019-01-27T01:19:15.884Z,1.20
2019-01-27T01:21:46.944Z,1.20
2019-01-27T01:24:18.044Z,1.20
2019-01-27T01:26:49.099Z,1.20
2019-01-27T01:29:20.184Z,1.10
2019-01-27T01:31:51.252Z,1.10
2019-01-27T01:34:22.329Z,1.00
2019-01-27T01:36:53.397Z,1.00
2019-01-27T01:39:24.474Z,1.10
2019-01-27T01:41:55.517Z,1.10
2019-01-27T01:44:26.601Z,1.10
2019-01-27T01:46:57.640Z,1.10
2019-01-27T01:49:28.731Z,1.00
2019-01-27T01:51:59.786Z,1.00
2019-01-27T01:54:30.876Z,0.90
2019-01-27T01:57:01.928Z,0.90
2019-01-27T01:59:32.996Z,0.80
2019-01-27T02:02:04.200Z,0.70
2019-01-27T02:04:36.340Z,0.80
2019-01-27T02:07:07.755Z,0.80
2019-01-27T02:09:38.816Z,0.80
2019-01-27T02:12:09.904Z,0.80
2019-01-27T02:14:40.986Z,0.80
2019-01-27T02:17:12.225Z,0.80
2019-01-27T02:19:43.360Z,0.80
2019-01-27T02:22:14.416Z,0.80
2019-01-27T02:24:45.478Z,0.80
2019-01-27T02:27:16.562Z,0.80
2019-01-27T02:29:47.694Z,0.90
2019-01-27T02:32:18.730Z,0.90
2019-01-27T02:34:49.809Z,0.90
2019-01-27T02:37:20.859Z,0.90
2019-01-27T02:39:52.005Z,0.90
2019-01-27T02:42:23.048Z,0.90
2019-01-27T02:44:54.123Z,0.90
2019-01-27T02:47:25.174Z,1.00
2019-01-27T02:49:56.256Z,1.00
2019-01-27T02:52:27.328Z,1.00
2019-01-27T02:54:58.393Z,0.90
2019-01-27T02:57:29.449Z,0.90
2019-01-27T03:00:00.537Z,0.90
2019-01-27T03:02:31.761Z,0.90
2019-01-27T03:05:05.478Z,0.90
2019-01-27T03:07:38.695Z,0.90
2019-01-27T03:10:12.936Z,0.90
2019-01-27T03:12:44.237Z,0.80
2019-01-27T03:15:16.888Z,0.70
2019-01-27T03:17:47.928Z,0.70
2019-01-27T03:20:19.004Z,0.60
2019-01-27T03:22:50.080Z,0.60
2019-01-27T03:25:21.152Z,0.50
2019-01-27T03:27:52.204Z,0.50
2019-01-27T03:30:23.297Z,0.50
2019-01-27T03:32:54.408Z,0.50
2019-01-27T03:35:25.478Z,0.50
2019-01-27T03:37:56.523Z,0.50
2019-01-27T03:40:27.607Z,0.50
2019-01-27T03:42:58.676Z,0.40
2019-01-27T03:45:29.772Z,0.50
2019-01-27T03:48:00.830Z,0.60
2019-01-27T03:50:31.945Z,0.60
2019-01-27T03:53:02.980Z,0.60
2019-01-27T03:55:34.048Z,0.60
2019-01-27T03:58:05.286Z,0.50
2019-01-27T04:00:36.350Z,0.40
2019-01-27T04:03:07.431Z,0.50
2019-01-27T04:05:38.689Z,0.50
2019-01-27T04:08:09.858Z,0.50
2019-01-27T04:10:44.789Z,0.50
2019-01-27T04:13:15.929Z,0.60
2019-01-27T04:15:47.006Z,0.60
2019-01-27T04:18:18.056Z,0.60
2019-01-27T04:20:49.374Z,0.70
2019-01-27T04:23:20.470Z,0.70
2019-01-27T04:25:51.540Z,0.70
2019-01-27T04:28:22.589Z,0.70
2019-01-27T04:30:53.660Z,0.70
2019-01-27T04:33:24.736Z,0.70
2019-01-27T04:35:55.798Z,0.70
2019-01-27T04:38:26.894Z,0.80
2019-01-27T04:40:57.978Z,0.90
2019-01-27T04:43:29.113Z,1.00
2019-01-27T04:46:00.176Z,1.10
2019-01-27T04:48:31.251Z,1.20
2019-01-27T04:51:02.313Z,1.20
2019-01-27T04:53:33.408Z,1.40
2019-01-27T04:56:04.596Z,1.40
2019-01-27T04:58:35.681Z,1.40
2019-01-27T05:01:06.724Z,1.50
2019-01-27T05:03:49.107Z,1.50
2019-01-27T05:06:20.173Z,1.50
2019-01-27T05:08:51.466Z,1.60
2019-01-27T05:11:22.556Z,1.50
2019-01-27T05:13:53.606Z,1.70
2019-01-27T05:16:24.668Z,1.70
2019-01-27T05:18:55.711Z,2.00
2019-01-27T05:21:26.886Z,2.00
2019-01-27T05:23:57.952Z,2.00
2019-01-27T05:26:29.070Z,2.00
2019-01-27T05:29:00.140Z,2.10
2019-01-27T05:31:31.219Z,2.10
2019-01-27T05:34:02.294Z,2.10
2019-01-27T05:36:33.360Z,2.30
2019-01-27T05:39:07.298Z,2.40
2019-01-27T05:41:38.423Z,2.50
2019-01-27T05:44:09.530Z,2.50
2019-01-27T05:46:40.576Z,2.50
2019-01-27T05:49:11.626Z,2.60
2019-01-27T05:51:42.715Z,2.70
2019-01-27T05:54:13.764Z,2.80
2019-01-27T05:56:44.882Z,2.90
2019-01-27T05:59:16.282Z,2.90
2019-01-27T06:01:47.473Z,2.90
2019-01-27T06:04:18.518Z,3.00
2019-01-27T06:06:49.570Z,3.00
2019-01-27T06:09:20.889Z,3.10
2019-01-27T06:11:52.200Z,3.10
2019-01-27T06:14:23.260Z,3.00
2019-01-27T06:16:54.327Z,3.10
2019-01-27T06:19:25.533Z,3.00
2019-01-27T06:21:56.584Z,3.00
2019-01-27T06:24:27.617Z,3.00
2019-01-27T06:26:58.743Z,3.00
2019-01-27T06:29:29.885Z,3.00
2019-01-27T06:32:00.942Z,3.00
2019-01-27T06:34:31.981Z,2.90
2019-01-27T06:37:03.026Z,3.00
2019-01-27T06:39:34.078Z,2.90
2019-01-27T06:42:05.176Z,2.90
2019-01-27T06:44:36.208Z,2.90
2019-01-27T06:47:07.284Z,2.90
2019-01-27T06:49:38.336Z,2.90
2019-01-27T06:52:10.253Z,2.80
2019-01-27T06:54:41.452Z,2.80
2019-01-27T06:57:12.525Z,2.80
2019-01-27T06:59:57.254Z,2.80
2019-01-27T07:02:32.676Z,2.80
2019-01-27T07:05:19.262Z,2.80
2019-01-27T07:08:12.010Z,2.80
2019-01-27T07:11:06.996Z,2.80
2019-01-27T07:14:00.032Z,2.80
2019-01-27T07:16:48.679Z,2.80
2019-01-27T07:19:41.794Z,2.80
2019-01-27T07:22:47.127Z,2.80
2019-01-27T07:25:46.284Z,2.70
2019-01-27T07:28:39.238Z,2.80
2019-01-27T07:31:30.805Z,2.90
2019-01-27T07:34:14.828Z,2.90
2019-01-27T07:36:54.958Z,3.00
2019-01-27T07:39:38.065Z,3.00
2019-01-27T07:42:16.380Z,3.00
2019-01-27T07:45:12.417Z,2.90
2019-01-27T07:47:49.520Z,3.00
2019-01-27T07:50:31.164Z,3.00
2019-01-27T07:53:18.429Z,3.00
2019-01-27T07:55:59.955Z,3.00
2019-01-27T07:58:52.942Z,3.10
2019-01-27T08:01:49.079Z,3.10
2019-01-27T08:04:45.102Z,3.10
2019-01-27T08:07:38.914Z,3.10
2019-01-27T08:10:32.260Z,3.10
2019-01-27T08:13:28.500Z,3.20
2019-01-27T08:16:15.783Z,3.20
2019-01-27T08:19:08.730Z,3.20
2019-01-27T08:22:14.041Z,3.10
2019-01-27T08:25:02.583Z,3.10
2019-01-27T08:27:50.814Z,3.20
2019-01-27T08:30:40.915Z,3.20
2019-01-27T08:33:20.765Z,3.40
2019-01-27T08:35:59.886Z,3.50
2019-01-27T08:38:52.887Z,3.50
2019-01-27T08:41:41.388Z,3.60
2019-01-27T08:44:29.914Z,3.60
2019-01-27T08:47:02.483Z,3.70
2019-01-27T08:49:33.743Z,3.80
2019-01-27T08:52:06.279Z,3.80
2019-01-27T08:54:37.390Z,3.90
2019-01-27T08:57:08.491Z,3.90
2019-01-27T08:59:39.663Z,4.00
2019-01-27T09:02:47.779Z,4.10
2019-01-27T09:05:34.541Z,4.10
2019-01-27T09:08:12.174Z,4.10
2019-01-27T09:11:00.774Z,4.10
2019-01-27T09:13:46.622Z,4.10
2019-01-27T09:16:39.674Z,4.10
2019-01-27T09:19:35.938Z,4.10
2019-01-27T09:22:35.107Z,4.20
2019-01-27T09:25:44.437Z,4.30
2019-01-27T09:28:34.450Z,4.30
2019-01-27T09:31:27.673Z,4.30
2019-01-27T09:34:15.560Z,4.50
2019-01-27T09:37:02.478Z,4.60
2019-01-27T09:39:52.488Z,4.70
2019-01-27T09:42:42.319Z,4.90
2019-01-27T09:45:32.969Z,4.90
2019-01-27T09:48:21.942Z,4.80
2019-01-27T09:51:14.993Z,4.70
2019-01-27T09:54:10.768Z,4.60
2019-01-27T09:56:50.943Z,4.50
2019-01-27T09:59:46.843Z,4.60
2019-01-27T10:02:36.920Z,4.50
2019-01-27T10:05:24.641Z,4.50
2019-01-27T10:08:04.145Z,4.40
2019-01-27T10:10:49.542Z,4.40
2019-01-27T10:13:39.630Z,4.40
2019-01-27T10:16:33.650Z,4.30
2019-01-27T10:19:23.912Z,4.40
2019-01-27T10:22:09.992Z,4.40
2019-01-27T10:24:58.897Z,4.50
2019-01-27T10:28:00.981Z,4.50
2019-01-27T10:30:54.162Z,4.50
2019-01-27T10:33:53.134Z,4.60
2019-01-27T10:36:40.333Z,4.60
2019-01-27T10:39:18.693Z,4.70
2019-01-27T10:41:55.257Z,4.90
2019-01-27T10:44:45.317Z,5.10
2019-01-27T10:47:28.605Z,5.50
2019-01-27T10:50:21.733Z,6.10
2019-01-27T10:53:03.936Z,6.20
2019-01-27T10:56:09.981Z,6.30
2019-01-27T10:58:54.216Z,6.50
2019-01-27T11:01:44.307Z,6.60
2019-01-27T11:04:34.367Z,6.90
2019-01-27T11:07:27.149Z,7.30
2019-01-27T11:10:11.746Z,7.50
2019-01-27T11:13:00.521Z,7.70
2019-01-27T11:15:49.368Z,8.30
2019-01-27T11:18:40.655Z,9.20
2019-01-27T11:21:24.483Z,9.80
2019-01-27T11:24:14.811Z,10.40
2019-01-27T11:27:13.823Z,9.30
2019-01-27T11:29:58.677Z,8.30
2019-01-27T11:32:38.074Z,7.80
2019-01-27T11:35:25.375Z,7.20
2019-01-27T11:38:14.231Z,6.70
2019-01-27T11:41:10.527Z,6.80
2019-01-27T11:44:06.903Z,6.70
2019-01-27T11:47:06.066Z,7.00
2019-01-27T11:49:54.447Z,7.10
2019-01-27T11:52:29.778Z,7.20
2019-01-27T11:55:00.822Z,7.30
2019-01-27T11:57:31.949Z,7.20
2019-01-27T12:00:03.042Z,7.00
2019-01-27T12:02:34.221Z,6.80
2019-01-27T12:05:07.126Z,6.70
2019-01-27T12:07:38.205Z,6.80
2019-01-27T12:10:12.837Z,6.70
2019-01-27T12:12:43.917Z,6.60
2019-01-27T12:15:17.432Z,7.10
2019-01-27T12:17:48.508Z,7.30
2019-01-27T12:20:19.923Z,7.90
2019-01-27T12:22:51.001Z,8.10
2019-01-27T12:25:22.110Z,8.80
2019-01-27T12:27:53.159Z,10.10
2019-01-27T12:30:24.691Z,11.50
2019-01-27T12:32:55.825Z,12.40
2019-01-27T12:35:26.876Z,12.60
2019-01-27T12:37:59.113Z,13.30
2019-01-27T12:40:30.205Z,13.60
2019-01-27T12:43:01.657Z,13.00
2019-01-27T12:45:32.874Z,14.10
2019-01-27T12:48:04.026Z,14.60
2019-01-27T12:50:35.218Z,14.10
2019-01-27T12:53:06.285Z,15.10
2019-01-27T12:55:37.534Z,12.20
2019-01-27T12:58:08.779Z,10.90
2019-01-27T13:00:43.072Z,9.30
2019-01-27T13:03:14.141Z,9.00
2019-01-27T13:05:45.324Z,8.50
2019-01-27T13:08:16.427Z,8.10
2019-01-27T13:10:47.482Z,7.90
2019-01-27T13:13:18.600Z,7.90
2019-01-27T13:15:49.717Z,7.90
2019-01-27T13:18:20.763Z,7.70
2019-01-27T13:20:51.820Z,7.60
2019-01-27T13:23:22.915Z,7.80
2019-01-27T13:25:54.010Z,7.80
2019-01-27T13:28:25.074Z,7.80
2019-01-27T13:30:56.101Z,7.80
2019-01-27T13:33:27.272Z,7.70
2019-01-27T13:35:58.350Z,7.70
2019-01-27T13:38:29.491Z,7.70
2019-01-27T13:41:00.557Z,7.60
2019-01-27T13:43:51.029Z,7.60
2019-01-27T13:46:33.488Z,7.60
2019-01-27T13:49:04.964Z,7.50
2019-01-27T13:51:36.034Z,7.50
2019-01-27T13:54:07.223Z,7.50
2019-01-27T13:56:38.260Z,7.50
2019-01-27T13:59:09.340Z,7.50
2019-01-27T14:01:40.410Z,7.50
2019-01-27T14:04:11.499Z,7.50
2019-01-27T14:06:42.547Z,7.50
2019-01-27T14:09:13.572Z,7.50
2019-01-27T14:11:44.704Z,7.40
2019-01-27T14:14:15.796Z,7.50
2019-01-27T14:16:48.301Z,7.70
2019-01-27T14:19:19.797Z,7.90
2019-01-27T14:21:50.916Z,8.00
2019-01-27T14:24:21.984Z,8.20
2019-01-27T14:26:53.035Z,8.40
2019-01-27T14:29:24.130Z,8.90
2019-01-27T14:31:55.253Z,9.10
2019-01-27T14:34:26.338Z,9.00
2019-01-27T14:36:57.392Z,8.90
2019-01-27T14:39:28.462Z,8.70
2019-01-27T14:41:59.589Z,8.50
2019-01-27T14:44:30.848Z,8.40
2019-01-27T14:47:01.945Z,8.30
2019-01-27T14:49:34.256Z,8.20
2019-01-27T14:52:05.470Z,8.10
2019-01-27T14:54:36.547Z,8.10
2019-01-27T14:57:07.639Z,8.00
2019-01-27T14:59:38.732Z,8.00
2019-01-27T15:02:09.826Z,8.00
2019-01-27T15:04:40.972Z,8.00
2019-01-27T15:07:12.083Z,7.90
2019-01-27T15:09:43.166Z,7.90
2019-01-27T15:12:14.230Z,7.80
2019-01-27T15:14:45.318Z,7.80
2019-01-27T15:17:16.384Z,7.80
2019-01-27T15:19:47.498Z,7.80
2019-01-27T15:22:18.623Z,7.70
2019-01-27T15:24:49.942Z,7.80
2019-01-27T15:27:20.990Z,7.80
2019-01-27T15:29:53.138Z,7.80
2019-01-27T15:32:24.234Z,7.90
2019-01-27T15:34:55.283Z,7.90
2019-01-27T15:37:26.395Z,7.90
2019-01-27T15:39:57.479Z,7.90
2019-01-27T15:42:28.862Z,7.90
2019-01-27T15:44:59.948Z,7.80
2019-01-27T15:47:31.002Z,7.70
2019-01-27T15:50:02.100Z,7.70
2019-01-27T15:52:33.320Z,7.70
2019-01-27T15:55:05.190Z,7.70
2019-01-27T15:57:36.526Z,7.70
2019-01-27T16:00:11.278Z,7.70
2019-01-27T16:02:42.478Z,7.60
2019-01-27T16:05:16.995Z,7.50
2019-01-27T16:07:48.134Z,7.50
2019-01-27T16:10:20.712Z,7.50
2019-01-27T16:12:54.033Z,7.50
2019-01-27T16:15:30.696Z,7.40
2019-01-27T16:18:01.868Z,7.30
2019-01-27T16:20:32.999Z,7.30
2019-01-27T16:23:23.200Z,7.30
2019-01-27T16:25:54.316Z,7.20
2019-01-27T16:28:25.453Z,7.30
2019-01-27T16:31:43.618Z,7.20
2019-01-27T16:34:36.484Z,7.20
2019-01-27T16:37:07.578Z,7.00
2019-01-27T16:39:38.674Z,6.90
2019-01-27T16:42:09.731Z,6.60
2019-01-27T16:44:41.104Z,6.50
2019-01-27T16:47:12.164Z,6.20
2019-01-27T16:49:43.342Z,6.00
2019-01-27T16:52:14.481Z,5.70
2019-01-27T16:54:45.616Z,5.50
2019-01-27T16:57:17.030Z,5.30
2019-01-27T16:59:48.114Z,5.10
2019-01-27T17:02:19.158Z,4.90
2019-01-27T17:04:50.282Z,4.80
2019-01-27T17:07:21.382Z,4.70
2019-01-27T17:09:52.422Z,4.70
2019-01-27T17:12:23.462Z,4.60
2019-01-27T17:14:54.597Z,4.60
2019-01-27T17:17:25.792Z,4.50
2019-01-27T17:20:02.447Z,4.50
2019-01-27T17:22:29.756Z,4.60
2019-01-27T17:25:00.826Z,4.60
2019-01-27T17:27:32.020Z,4.50
2019-01-27T17:30:03.094Z,4.50
2019-01-27T17:32:34.254Z,4.50
2019-01-27T17:35:07.216Z,4.40
2019-01-27T17:37:38.572Z,4.50
2019-01-27T17:40:11.064Z,4.50
2019-01-27T17:42:42.682Z,4.50
2019-01-27T17:45:15.858Z,4.50
2019-01-27T17:47:47.352Z,4.50
2019-01-27T17:50:18.674Z,4.50
2019-01-27T17:52:49.906Z,4.60
2019-01-27T17:55:43.272Z,4.60
2019-01-27T17:58:45.414Z,4.50
2019-01-27T18:01:34.314Z,4.50
2019-01-27T18:04:24.644Z,4.60
2019-01-27T18:07:20.797Z,4.50
2019-01-27T18:10:15.844Z,4.50
2019-01-27T18:12:55.330Z,4.40
2019-01-27T18:15:26.553Z,4.40
2019-01-27T18:17:57.656Z,4.40
2019-01-27T18:20:28.721Z,4.40
2019-01-27T18:22:59.910Z,4.40
2019-01-27T18:25:31.263Z,4.40
2019-01-27T18:28:02.330Z,4.30
2019-01-27T18:30:33.534Z,4.40
2019-01-27T18:33:04.694Z,4.30
2019-01-27T18:35:35.798Z,4.20
2019-01-27T18:38:07.026Z,4.20
2019-01-27T18:40:38.104Z,4.20
2019-01-27T18:43:09.155Z,4.20
2019-01-27T18:45:40.446Z,4.20
2019-01-27T18:48:11.500Z,4.10
2019-01-27T18:50:42.817Z,4.10
2019-01-27T18:53:32.799Z,4.10
2019-01-27T18:56:15.384Z,4.00
2019-01-27T18:59:02.005Z,4.00
2019-01-27T19:01:54.215Z,4.00
2019-01-27T19:04:39.028Z,3.90
2019-01-27T19:07:26.851Z,3.80
2019-01-27T19:10:17.360Z,3.70
2019-01-27T19:12:54.808Z,3.70
2019-01-27T19:15:44.917Z,3.60
2019-01-27T19:18:35.282Z,3.60
2019-01-27T19:21:17.940Z,3.50
2019-01-27T19:23:58.556Z,3.40
2019-01-27T19:27:03.800Z,3.40
2019-01-27T19:29:56.700Z,3.40
2019-01-27T19:32:50.000Z,3.40
2019-01-27T19:35:42.802Z,3.30
2019-01-27T19:38:35.912Z,3.30
2019-01-27T19:41:24.840Z,3.30
2019-01-27T19:44:30.131Z,3.30
2019-01-27T19:47:11.815Z,3.30
2019-01-27T19:49:58.787Z,3.30
2019-01-27T19:55:41.635Z,3.30
2019-01-27T19:58:43.864Z,3.30
2019-01-27T20:01:31.695Z,3.30
2019-01-27T20:04:18.854Z,3.20
2019-01-27T20:06:58.096Z,3.20
2019-01-27T20:09:36.186Z,3.20
2019-01-27T20:12:26.095Z,3.20
2019-01-27T20:15:05.488Z,3.10
2019-01-27T20:17:59.606Z,3.20
2019-01-27T20:20:37.156Z,3.10
2019-01-27T20:23:42.560Z,3.10
2019-01-27T20:26:34.251Z,3.10
2019-01-27T20:29:23.470Z,3.10
2019-01-27T20:32:13.603Z,3.20
2019-01-27T20:35:02.600Z,3.10
2019-01-27T20:37:38.931Z,3.10
2019-01-27T20:40:33.976Z,3.10
2019-01-27T20:43:22.830Z,3.20
2019-01-27T20:46:11.972Z,3.10
2019-01-27T20:49:05.870Z,3.10
2019-01-27T20:52:04.901Z,3.00
2019-01-27T20:54:57.981Z,2.90
2019-01-27T20:57:38.380Z,2.80
2019-01-27T21:00:44.912Z,2.80
2019-01-27T21:03:35.216Z,2.70
2019-01-27T21:06:13.339Z,2.60
2019-01-27T21:08:52.671Z,2.40
2019-01-27T21:11:36.028Z,2.30
2019-01-27T21:14:13.909Z,2.30
2019-01-27T21:17:04.260Z,2.30
2019-01-27T21:19:42.175Z,2.20
2019-01-27T21:22:14.386Z,2.20
2019-01-27T21:24:45.502Z,2.10
2019-01-27T21:27:16.607Z,2.20
2019-01-27T21:29:47.658Z,2.00
2019-01-27T21:32:19.679Z,2.10
2019-01-27T21:34:50.724Z,2.10
2019-01-27T21:37:21.878Z,2.10
2019-01-27T21:39:52.943Z,2.00
2019-01-27T21:42:24.000Z,2.00
2019-01-27T21:44:55.075Z,1.90
2019-01-27T21:47:26.167Z,1.80
2019-01-27T21:49:57.461Z,1.80
2019-01-27T21:52:28.516Z,1.70
2019-01-27T21:54:59.593Z,1.70
2019-01-27T21:57:30.664Z,1.60
2019-01-27T22:00:01.812Z,1.60
2019-01-27T22:02:34.460Z,1.70
2019-01-27T22:05:06.596Z,1.60
2019-01-27T22:07:37.721Z,1.50
2019-01-27T22:10:11.103Z,1.50
2019-01-27T22:12:42.320Z,1.50
2019-01-27T22:15:13.783Z,1.50
2019-01-27T22:17:44.852Z,1.40
2019-01-27T22:20:16.354Z,1.40
2019-01-27T22:22:47.431Z,1.40
2019-01-27T22:25:18.689Z,1.40
2019-01-27T22:27:49.760Z,1.50
2019-01-27T22:30:21.436Z,1.50
2019-01-27T22:32:52.492Z,1.50
2019-01-27T22:35:23.630Z,1.50
2019-01-27T22:37:54.696Z,1.40
2019-01-27T22:40:25.781Z,1.40
2019-01-27T22:42:56.828Z,1.30
2019-01-27T22:45:27.873Z,1.30
2019-01-27T22:47:58.936Z,1.30
2019-01-27T22:50:30.254Z,1.30
2019-01-27T22:53:01.315Z,1.30
2019-01-27T22:55:33.476Z,1.40
2019-01-27T22:58:04.931Z,1.40
2019-01-27T23:01:05.574Z,1.40
2019-01-27T23:03:39.349Z,1.50
2019-01-27T23:06:10.604Z,1.50
2019-01-27T23:08:41.684Z,1.60
2019-01-27T23:11:12.744Z,1.60
2019-01-27T23:13:43.870Z,1.60
2019-01-27T23:16:15.080Z,1.70
2019-01-27T23:18:46.148Z,1.60
2019-01-27T23:21:17.180Z,1.60
2019-01-27T23:23:48.267Z,1.50
2019-01-27T23:26:19.395Z,1.30
2019-01-27T23:28:50.482Z,1.30
2019-01-27T23:31:21.586Z,1.20
2019-01-27T23:33:52.742Z,1.10
2019-01-27T23:36:23.817Z,1.10
2019-01-27T23:38:54.894Z,1.00
2019-01-27T23:41:26.012Z,1.00
2019-01-27T23:43:57.079Z,1.00
2019-01-27T23:46:28.113Z,1.00
2019-01-27T23:48:59.167Z,1.00
2019-01-27T23:51:30.443Z,1.00
2019-01-27T23:54:01.518Z,1.10
2019-01-27T23:56:32.640Z,1.00
2019-01-27T23:59:03.715Z,1.10
